createdAt,value
2019-03-09T17:07:23.414Z,1.20
2019-03-09T17:09:53.719Z,1.17
2019-03-09T17:12:23.889Z,0.90
2019-03-09T17:14:55.867Z,1.17
2019-03-09T17:17:26.070Z,1.17
2019-03-09T17:19:56.292Z,1.30
2019-03-09T17:22:32.913Z,1.30
2019-03-09T17:24:59.484Z,1.07
2019-03-09T17:27:30.533Z,1.10
2019-03-09T17:30:00.823Z,1.50
2019-03-09T17:32:32.544Z,1.30
2019-03-09T17:35:03.501Z,1.30
2019-03-09T17:37:34.112Z,1.00
2019-03-09T17:40:04.544Z,1.30
2019-03-09T17:42:36.477Z,1.20
2019-03-09T17:45:11.694Z,1.37
2019-03-09T17:47:41.882Z,1.40
2019-03-09T17:50:14.090Z,0.90
2019-03-09T17:52:44.263Z,1.10
2019-03-09T17:55:14.552Z,1.13
2019-03-09T17:57:44.823Z,1.10
2019-03-09T18:00:18.925Z,1.13
2019-03-09T18:02:49.122Z,0.90
2019-03-09T18:05:19.967Z,1.10
2019-03-09T18:07:50.305Z,0.77
2019-03-09T18:10:43.509Z,1.13
2019-03-09T18:13:13.745Z,1.00
2019-03-09T18:15:44.086Z,0.97
2019-03-09T18:18:14.258Z,1.00
2019-03-09T18:20:44.602Z,0.90
2019-03-09T18:23:15.875Z,1.00
2019-03-09T18:25:46.073Z,1.13
2019-03-09T18:28:17.246Z,1.00
2019-03-09T18:30:48.294Z,0.90
2019-03-09T18:33:18.449Z,0.97
2019-03-09T18:35:49.205Z,1.10
2019-03-09T18:38:19.593Z,1.17
2019-03-09T18:40:51.727Z,1.00
2019-03-09T18:43:21.942Z,1.10
2019-03-09T18:45:52.293Z,1.00
2019-03-09T18:48:22.473Z,0.90
2019-03-09T18:50:53.266Z,1.00
2019-03-09T18:53:23.451Z,1.00
2019-03-09T18:55:59.198Z,1.00
2019-03-09T18:58:25.503Z,0.90
2019-03-09T19:00:55.707Z,0.90
2019-03-09T19:03:25.920Z,1.30
2019-03-09T19:05:56.270Z,1.20
2019-03-09T19:08:26.485Z,1.07
2019-03-09T19:10:57.129Z,1.10
2019-03-09T19:13:27.375Z,1.87
2019-03-09T19:15:57.600Z,2.00
2019-03-09T19:18:27.835Z,2.80
2019-03-09T19:20:58.029Z,2.63
2019-03-09T19:23:28.260Z,2.00
2019-03-09T19:25:58.482Z,1.67
2019-03-09T19:28:28.873Z,1.70
2019-03-09T19:30:59.087Z,1.33
2019-03-09T19:33:30.190Z,1.90
2019-03-09T19:36:00.428Z,1.57
2019-03-09T19:38:30.590Z,1.50
2019-03-09T19:41:00.770Z,1.30
2019-03-09T19:43:31.211Z,1.60
2019-03-09T19:46:02.058Z,1.47
2019-03-09T19:48:32.387Z,1.20
2019-03-09T19:51:02.660Z,1.33
2019-03-09T19:53:32.962Z,1.20
2019-03-09T19:56:03.677Z,1.30
2019-03-09T19:58:34.396Z,1.53
2019-03-09T20:01:05.379Z,1.40
2019-03-09T20:03:35.726Z,1.40
2019-03-09T20:06:05.928Z,1.40
2019-03-09T20:08:39.325Z,1.10
2019-03-09T20:11:09.506Z,1.30
2019-03-09T20:13:39.730Z,1.17
2019-03-09T20:16:09.898Z,1.20
2019-03-09T20:18:40.213Z,1.10
2019-03-09T20:21:10.494Z,1.10
2019-03-09T20:23:40.792Z,1.13
2019-03-09T20:26:14.640Z,0.90
2019-03-09T20:28:44.715Z,1.40
2019-03-09T20:31:16.049Z,1.00
2019-03-09T20:33:46.700Z,0.80
2019-03-09T20:36:17.298Z,1.00
2019-03-09T20:38:47.600Z,1.00
2019-03-09T20:41:17.867Z,1.10
2019-03-09T20:43:48.824Z,1.20
2019-03-09T20:46:20.467Z,0.77
2019-03-09T20:48:50.774Z,0.80
2019-03-09T20:51:22.907Z,0.77
2019-03-09T20:53:53.250Z,1.03
2019-03-09T20:56:23.419Z,0.87
2019-03-09T20:58:56.444Z,1.00
2019-03-09T21:01:28.387Z,0.90
2019-03-09T21:04:00.884Z,1.20
2019-03-09T21:06:30.563Z,1.00
2019-03-09T21:09:00.700Z,0.90
2019-03-09T21:11:34.277Z,1.03
2019-03-09T21:14:04.444Z,0.90
2019-03-09T21:16:36.621Z,0.80
2019-03-09T21:19:06.897Z,0.77
2019-03-09T21:21:40.163Z,0.97
2019-03-09T21:24:10.904Z,1.07
2019-03-09T21:26:42.090Z,0.90
2019-03-09T21:29:12.226Z,0.80
2019-03-09T21:31:42.450Z,0.83
2019-03-09T21:34:12.707Z,0.87
2019-03-09T21:36:42.870Z,0.80
2019-03-09T21:39:13.087Z,0.90
2019-03-09T21:41:43.301Z,0.90
2019-03-09T21:44:13.450Z,0.90
2019-03-09T21:46:43.586Z,0.80
2019-03-09T21:49:13.802Z,0.70
2019-03-09T21:51:46.490Z,0.80
2019-03-09T21:54:16.912Z,0.80
2019-03-09T21:56:47.061Z,0.67
2019-03-09T21:59:17.224Z,0.60
2019-03-09T22:01:47.459Z,0.73
2019-03-09T22:04:17.649Z,0.80
2019-03-09T22:06:47.849Z,0.90
2019-03-09T22:09:18.068Z,0.80
2019-03-09T22:11:48.199Z,0.80
2019-03-09T22:14:18.372Z,0.70
2019-03-09T22:16:56.297Z,0.70
2019-03-09T22:19:20.422Z,0.80
2019-03-09T22:21:50.548Z,0.70
2019-03-09T22:24:20.691Z,0.60
2019-03-09T22:26:50.832Z,0.60
2019-03-09T22:29:20.966Z,0.60
2019-03-09T22:31:51.210Z,0.73
2019-03-09T22:34:21.420Z,0.60
2019-03-09T22:36:52.668Z,0.90
2019-03-09T22:39:22.849Z,0.70
2019-03-09T22:41:53.025Z,0.67
2019-03-09T22:44:23.193Z,0.60
2019-03-09T22:46:53.729Z,0.90
2019-03-09T22:49:23.981Z,0.60
2019-03-09T22:51:54.657Z,0.90
2019-03-09T22:54:24.849Z,0.60
2019-03-09T22:56:57.268Z,0.83
2019-03-09T22:59:28.507Z,0.80
2019-03-09T23:01:58.681Z,0.80
2019-03-09T23:04:29.016Z,0.60
2019-03-09T23:06:59.223Z,0.70
2019-03-09T23:09:29.911Z,0.60
2019-03-09T23:12:00.077Z,0.90
2019-03-09T23:14:30.589Z,0.50
2019-03-09T23:17:00.902Z,0.70
2019-03-09T23:19:31.140Z,0.50
2019-03-09T23:22:01.310Z,0.53
2019-03-09T23:24:31.565Z,0.60
2019-03-09T23:27:01.736Z,0.63
2019-03-09T23:29:32.917Z,0.70
2019-03-09T23:32:03.215Z,0.53
2019-03-09T23:34:33.468Z,0.63
2019-03-09T23:37:03.761Z,0.70
2019-03-09T23:39:34.162Z,0.67
2019-03-09T23:42:04.561Z,0.53
2019-03-09T23:44:34.758Z,0.70
2019-03-09T23:47:04.972Z,0.70
2019-03-09T23:49:35.198Z,0.60
2019-03-09T23:52:07.355Z,0.67
2019-03-09T23:54:37.935Z,0.63
2019-03-09T23:57:09.237Z,0.60
2019-03-09T23:59:39.456Z,0.63
